sensor_id;sensor_type;location;lat;lon;timestamp;temperature;humidity
12720;DHT22;6424;48.520;11.228;2023-04-24T00:01:23;10.40;99.90
12720;DHT22;6424;48.520;11.228;2023-04-24T00:04:04;10.50;99.90
12720;DHT22;6424;48.520;11.228;2023-04-24T00:06:45;10.40;99.90
12720;DHT22;6424;48.520;11.228;2023-04-24T00:09:29;10.40;99.90
12720;DHT22;6424;48.520;11.228;2023-04-24T00:12:10;10.40;99.90
12720;DHT22;6424;48.520;11.228;2023-04-24T00:14:51;10.40;99.90
12720;DHT22;6424;48.520;11.228;2023-04-24T00:17:32;10.30;99.90
12720;DHT22;6424;48.520;11.228;2023-04-24T00:19:58;10.30;99.90
12720;DHT22;6424;48.520;11.228;2023-04-24T00:22:38;10.30;99.90
12720;DHT22;6424;48.520;11.228;2023-04-24T00:25:20;10.30;99.90
12720;DHT22;6424;48.520;11.228;2023-04-24T00:28:01;10.30;99.90
12720;DHT22;6424;48.520;11.228;2023-04-24T00:30:41;10.20;99.90
12720;DHT22;6424;48.520;11.228;2023-04-24T00:33:07;10.20;99.90
12720;DHT22;6424;48.520;11.228;2023-04-24T00:35:48;10.20;99.90
12720;DHT22;6424;48.520;11.228;2023-04-24T00:38:29;10.20;99.90
12720;DHT22;6424;48.520;11.228;2023-04-24T00:41:10;10.10;99.90
12720;DHT22;6424;48.520;11.228;2023-04-24T00:43:52;10.10;99.90
12720;DHT22;6424;48.520;11.228;2023-04-24T00:46:33;10.10;99.90
12720;DHT22;6424;48.520;11.228;2023-04-24T00:49:13;10.10;99.90
12720;DHT22;6424;48.520;11.228;2023-04-24T00:51:39;10.10;99.90
12720;DHT22;6424;48.520;11.228;2023-04-24T00:54:21;10.10;99.90
12720;DHT22;6424;48.520;11.228;2023-04-24T00:57:03;10.10;99.90
12720;DHT22;6424;48.520;11.228;2023-04-24T00:59:30;10.00;99.90
12720;DHT22;6424;48.520;11.228;2023-04-24T01:02:11;10.10;99.90
12720;DHT22;6424;48.520;11.228;2023-04-24T01:04:52;10.00;99.90
12720;DHT22;6424;48.520;11.228;2023-04-24T01:07:34;10.00;99.90
12720;DHT22;6424;48.520;11.228;2023-04-24T01:10:15;10.00;99.90
12720;DHT22;6424;48.520;11.228;2023-04-24T01:12:58;10.00;99.90
12720;DHT22;6424;48.520;11.228;2023-04-24T01:15:39;10.00;99.90
12720;DHT22;6424;48.520;11.228;2023-04-24T01:18:19;9.90;99.90
12720;DHT22;6424;48.520;11.228;2023-04-24T01:21:03;9.90;99.90
12720;DHT22;6424;48.520;11.228;2023-04-24T01:23:45;9.90;99.90
12720;DHT22;6424;48.520;11.228;2023-04-24T01:26:26;9.90;99.90
12720;DHT22;6424;48.520;11.228;2023-04-24T01:29:07;9.90;99.90
12720;DHT22;6424;48.520;11.228;2023-04-24T01:31:48;9.90;99.90
12720;DHT22;6424;48.520;11.228;2023-04-24T01:34:29;9.90;99.90
12720;DHT22;6424;48.520;11.228;2023-04-24T01:37:10;9.90;99.90
12720;DHT22;6424;48.520;11.228;2023-04-24T01:39:51;9.90;99.90
12720;DHT22;6424;48.520;11.228;2023-04-24T01:42:32;9.80;99.90
12720;DHT22;6424;48.520;11.228;2023-04-24T01:45:13;9.80;99.90
12720;DHT22;6424;48.520;11.228;2023-04-24T01:47:54;9.80;99.90
12720;DHT22;6424;48.520;11.228;2023-04-24T01:50:34;9.70;99.90
12720;DHT22;6424;48.520;11.228;2023-04-24T01:53:15;9.70;99.90
12720;DHT22;6424;48.520;11.228;2023-04-24T01:55:57;9.70;99.90
12720;DHT22;6424;48.520;11.228;2023-04-24T01:58:23;9.70;99.90
12720;DHT22;6424;48.520;11.228;2023-04-24T02:01:03;9.60;99.90
12720;DHT22;6424;48.520;11.228;2023-04-24T02:03:44;9.60;99.90
12720;DHT22;6424;48.520;11.228;2023-04-24T02:06:25;9.60;99.90
12720;DHT22;6424;48.520;11.228;2023-04-24T02:09:06;9.60;99.90
12720;DHT22;6424;48.520;11.228;2023-04-24T02:11:47;9.60;99.90
12720;DHT22;6424;48.520;11.228;2023-04-24T02:14:27;9.60;99.90
12720;DHT22;6424;48.520;11.228;2023-04-24T02:17:08;9.50;99.90
12720;DHT22;6424;48.520;11.228;2023-04-24T02:19:49;9.50;99.90
12720;DHT22;6424;48.520;11.228;2023-04-24T02:22:30;9.50;99.90
12720;DHT22;6424;48.520;11.228;2023-04-24T02:25:11;9.50;99.90
12720;DHT22;6424;48.520;11.228;2023-04-24T02:27:36;9.50;99.90
12720;DHT22;6424;48.520;11.228;2023-04-24T02:30:17;9.40;99.90
12720;DHT22;6424;48.520;11.228;2023-04-24T02:32:58;9.40;99.90
12720;DHT22;6424;48.520;11.228;2023-04-24T02:35:39;9.40;99.90
12720;DHT22;6424;48.520;11.228;2023-04-24T02:38:19;9.40;99.90
12720;DHT22;6424;48.520;11.228;2023-04-24T02:41:00;9.40;99.90
12720;DHT22;6424;48.520;11.228;2023-04-24T02:43:42;9.40;99.90
12720;DHT22;6424;48.520;11.228;2023-04-24T02:46:23;9.40;99.90
12720;DHT22;6424;48.520;11.228;2023-04-24T02:49:04;9.40;99.90
12720;DHT22;6424;48.520;11.228;2023-04-24T02:51:44;9.40;99.90
12720;DHT22;6424;48.520;11.228;2023-04-24T02:54:25;9.40;99.90
12720;DHT22;6424;48.520;11.228;2023-04-24T02:57:06;9.40;99.90
12720;DHT22;6424;48.520;11.228;2023-04-24T02:59:47;9.40;99.90
12720;DHT22;6424;48.520;11.228;2023-04-24T03:02:27;9.40;99.90
12720;DHT22;6424;48.520;11.228;2023-04-24T03:05:08;9.40;99.90
12720;DHT22;6424;48.520;11.228;2023-04-24T03:07:49;9.40;99.90
12720;DHT22;6424;48.520;11.228;2023-04-24T03:10:30;9.40;99.90
12720;DHT22;6424;48.520;11.228;2023-04-24T03:13:12;9.40;99.90
12720;DHT22;6424;48.520;11.228;2023-04-24T03:15:38;9.40;99.90
12720;DHT22;6424;48.520;11.228;2023-04-24T03:18:19;9.30;99.90
12720;DHT22;6424;48.520;11.228;2023-04-24T03:21:00;9.30;99.90
12720;DHT22;6424;48.520;11.228;2023-04-24T03:23:41;9.30;99.90
12720;DHT22;6424;48.520;11.228;2023-04-24T03:26:22;9.40;99.90
12720;DHT22;6424;48.520;11.228;2023-04-24T03:29:02;9.30;99.90
12720;DHT22;6424;48.520;11.228;2023-04-24T03:31:43;9.30;99.90
12720;DHT22;6424;48.520;11.228;2023-04-24T03:34:24;9.30;99.90
12720;DHT22;6424;48.520;11.228;2023-04-24T03:37:05;9.30;99.90
12720;DHT22;6424;48.520;11.228;2023-04-24T03:39:46;9.30;99.90
12720;DHT22;6424;48.520;11.228;2023-04-24T03:42:11;9.30;99.90
12720;DHT22;6424;48.520;11.228;2023-04-24T03:44:52;9.30;99.90
12720;DHT22;6424;48.520;11.228;2023-04-24T03:47:33;9.30;99.90
12720;DHT22;6424;48.520;11.228;2023-04-24T03:50:14;9.30;99.90
12720;DHT22;6424;48.520;11.228;2023-04-24T03:52:55;9.30;99.90
12720;DHT22;6424;48.520;11.228;2023-04-24T03:55:21;9.30;99.90
12720;DHT22;6424;48.520;11.228;2023-04-24T03:58:02;9.30;99.90
12720;DHT22;6424;48.520;11.228;2023-04-24T04:00:42;9.30;99.90
12720;DHT22;6424;48.520;11.228;2023-04-24T04:03:25;9.30;99.90
12720;DHT22;6424;48.520;11.228;2023-04-24T04:06:05;9.30;99.90
12720;DHT22;6424;48.520;11.228;2023-04-24T04:08:46;9.30;99.90
12720;DHT22;6424;48.520;11.228;2023-04-24T04:11:27;9.30;99.90
12720;DHT22;6424;48.520;11.228;2023-04-24T04:14:08;9.30;99.90
12720;DHT22;6424;48.520;11.228;2023-04-24T04:16:48;9.20;99.90
12720;DHT22;6424;48.520;11.228;2023-04-24T04:19:29;9.30;99.90
12720;DHT22;6424;48.520;11.228;2023-04-24T04:22:11;9.20;99.90
12720;DHT22;6424;48.520;11.228;2023-04-24T04:24:52;9.20;99.90
12720;DHT22;6424;48.520;11.228;2023-04-24T04:27:32;9.20;99.90
12720;DHT22;6424;48.520;11.228;2023-04-24T04:30:14;9.20;99.90
12720;DHT22;6424;48.520;11.228;2023-04-24T04:32:55;9.20;99.90
12720;DHT22;6424;48.520;11.228;2023-04-24T04:35:36;9.20;99.90
12720;DHT22;6424;48.520;11.228;2023-04-24T04:38:17;9.20;99.90
12720;DHT22;6424;48.520;11.228;2023-04-24T04:40:58;9.20;99.90
12720;DHT22;6424;48.520;11.228;2023-04-24T04:43:39;9.20;99.90
12720;DHT22;6424;48.520;11.228;2023-04-24T04:46:21;9.20;99.90
12720;DHT22;6424;48.520;11.228;2023-04-24T04:49:02;9.20;99.90
12720;DHT22;6424;48.520;11.228;2023-04-24T04:51:43;9.20;99.90
12720;DHT22;6424;48.520;11.228;2023-04-24T04:54:24;9.20;99.90
12720;DHT22;6424;48.520;11.228;2023-04-24T04:57:05;9.20;99.90
12720;DHT22;6424;48.520;11.228;2023-04-24T04:59:46;9.20;99.90
12720;DHT22;6424;48.520;11.228;2023-04-24T05:02:27;9.30;99.90
12720;DHT22;6424;48.520;11.228;2023-04-24T05:05:08;9.30;99.90
12720;DHT22;6424;48.520;11.228;2023-04-24T05:07:49;9.30;99.90
12720;DHT22;6424;48.520;11.228;2023-04-24T05:10:15;9.30;99.90
12720;DHT22;6424;48.520;11.228;2023-04-24T05:12:56;9.30;99.90
12720;DHT22;6424;48.520;11.228;2023-04-24T05:15:36;9.30;99.90
12720;DHT22;6424;48.520;11.228;2023-04-24T05:18:17;9.30;99.90
12720;DHT22;6424;48.520;11.228;2023-04-24T05:20:58;9.30;99.90
12720;DHT22;6424;48.520;11.228;2023-04-24T05:23:39;9.40;99.90
12720;DHT22;6424;48.520;11.228;2023-04-24T05:26:20;9.30;99.90
12720;DHT22;6424;48.520;11.228;2023-04-24T05:28:46;9.40;99.90
12720;DHT22;6424;48.520;11.228;2023-04-24T05:31:26;9.40;99.90
12720;DHT22;6424;48.520;11.228;2023-04-24T05:34:07;9.50;99.90
12720;DHT22;6424;48.520;11.228;2023-04-24T05:36:48;9.60;99.90
12720;DHT22;6424;48.520;11.228;2023-04-24T05:39:29;9.60;99.90
12720;DHT22;6424;48.520;11.228;2023-04-24T05:42:10;9.70;99.90
12720;DHT22;6424;48.520;11.228;2023-04-24T05:44:50;9.80;99.90
12720;DHT22;6424;48.520;11.228;2023-04-24T05:47:31;9.90;99.90
12720;DHT22;6424;48.520;11.228;2023-04-24T05:50:12;9.90;99.90
12720;DHT22;6424;48.520;11.228;2023-04-24T05:52:53;10.00;99.90
12720;DHT22;6424;48.520;11.228;2023-04-24T05:55:19;10.00;99.90
12720;DHT22;6424;48.520;11.228;2023-04-24T05:58:00;10.10;99.90
12720;DHT22;6424;48.520;11.228;2023-04-24T06:00:26;10.00;99.90
12720;DHT22;6424;48.520;11.228;2023-04-24T06:03:07;10.10;99.90
12720;DHT22;6424;48.520;11.228;2023-04-24T06:05:50;10.10;99.90
12720;DHT22;6424;48.520;11.228;2023-04-24T06:08:31;10.20;99.90
12720;DHT22;6424;48.520;11.228;2023-04-24T06:11:13;10.20;99.90
12720;DHT22;6424;48.520;11.228;2023-04-24T06:13:53;10.30;99.90
12720;DHT22;6424;48.520;11.228;2023-04-24T06:16:34;10.30;99.90
12720;DHT22;6424;48.520;11.228;2023-04-24T06:19:15;10.30;99.90
12720;DHT22;6424;48.520;11.228;2023-04-24T06:21:56;10.30;99.90
12720;DHT22;6424;48.520;11.228;2023-04-24T06:24:37;10.20;99.90
12720;DHT22;6424;48.520;11.228;2023-04-24T06:27:18;10.20;99.90
12720;DHT22;6424;48.520;11.228;2023-04-24T06:29:58;10.20;99.90
12720;DHT22;6424;48.520;11.228;2023-04-24T06:32:39;10.10;99.90
12720;DHT22;6424;48.520;11.228;2023-04-24T06:35:06;10.10;99.90
12720;DHT22;6424;48.520;11.228;2023-04-24T06:37:48;10.20;99.90
12720;DHT22;6424;48.520;11.228;2023-04-24T06:40:29;10.30;99.90
12720;DHT22;6424;48.520;11.228;2023-04-24T06:43:10;10.40;99.90
12720;DHT22;6424;48.520;11.228;2023-04-24T06:45:51;10.50;99.90
12720;DHT22;6424;48.520;11.228;2023-04-24T06:48:32;10.60;99.90
12720;DHT22;6424;48.520;11.228;2023-04-24T06:51:13;10.70;99.90
12720;DHT22;6424;48.520;11.228;2023-04-24T06:53:54;10.90;99.90
12720;DHT22;6424;48.520;11.228;2023-04-24T06:56:36;11.00;99.90
12720;DHT22;6424;48.520;11.228;2023-04-24T06:59:18;11.10;99.90
12720;DHT22;6424;48.520;11.228;2023-04-24T07:01:59;11.10;99.90
12720;DHT22;6424;48.520;11.228;2023-04-24T07:04:40;11.30;99.90
12720;DHT22;6424;48.520;11.228;2023-04-24T07:07:21;11.50;99.90
12720;DHT22;6424;48.520;11.228;2023-04-24T07:10:05;11.60;99.90
12720;DHT22;6424;48.520;11.228;2023-04-24T07:12:46;11.70;99.90
12720;DHT22;6424;48.520;11.228;2023-04-24T07:15:27;11.60;99.90
12720;DHT22;6424;48.520;11.228;2023-04-24T07:18:08;11.50;99.90
12720;DHT22;6424;48.520;11.228;2023-04-24T07:20:49;11.50;99.90
12720;DHT22;6424;48.520;11.228;2023-04-24T07:23:32;11.40;99.90
12720;DHT22;6424;48.520;11.228;2023-04-24T07:26:13;11.30;99.90
12720;DHT22;6424;48.520;11.228;2023-04-24T07:28:55;11.20;99.90
12720;DHT22;6424;48.520;11.228;2023-04-24T07:31:22;11.10;99.90
12720;DHT22;6424;48.520;11.228;2023-04-24T07:34:02;11.00;99.90
12720;DHT22;6424;48.520;11.228;2023-04-24T07:36:43;11.00;99.90
12720;DHT22;6424;48.520;11.228;2023-04-24T07:39:24;10.90;99.90
12720;DHT22;6424;48.520;11.228;2023-04-24T07:42:05;10.80;99.90
12720;DHT22;6424;48.520;11.228;2023-04-24T07:44:46;10.70;99.90
12720;DHT22;6424;48.520;11.228;2023-04-24T07:47:28;10.40;99.90
12720;DHT22;6424;48.520;11.228;2023-04-24T07:50:09;10.10;99.90
12720;DHT22;6424;48.520;11.228;2023-04-24T07:52:50;9.80;99.90
12720;DHT22;6424;48.520;11.228;2023-04-24T07:55:31;9.50;99.90
12720;DHT22;6424;48.520;11.228;2023-04-24T07:58:11;9.20;99.90
12720;DHT22;6424;48.520;11.228;2023-04-24T08:00:52;9.00;99.90
12720;DHT22;6424;48.520;11.228;2023-04-24T08:03:18;8.80;99.90
12720;DHT22;6424;48.520;11.228;2023-04-24T08:06:00;8.70;99.90
12720;DHT22;6424;48.520;11.228;2023-04-24T08:08:41;8.70;99.90
12720;DHT22;6424;48.520;11.228;2023-04-24T08:11:22;8.60;99.90
12720;DHT22;6424;48.520;11.228;2023-04-24T08:14:02;8.60;99.90
12720;DHT22;6424;48.520;11.228;2023-04-24T08:16:43;8.70;99.90
12720;DHT22;6424;48.520;11.228;2023-04-24T08:19:24;8.80;99.90
12720;DHT22;6424;48.520;11.228;2023-04-24T08:22:06;8.90;99.90
12720;DHT22;6424;48.520;11.228;2023-04-24T08:24:46;9.10;99.90
12720;DHT22;6424;48.520;11.228;2023-04-24T08:27:27;9.40;99.90
12720;DHT22;6424;48.520;11.228;2023-04-24T08:30:08;9.60;99.90
12720;DHT22;6424;48.520;11.228;2023-04-24T08:32:49;10.00;99.90
12720;DHT22;6424;48.520;11.228;2023-04-24T08:35:30;10.30;99.90
12720;DHT22;6424;48.520;11.228;2023-04-24T08:38:11;10.60;99.90
12720;DHT22;6424;48.520;11.228;2023-04-24T08:40:52;10.80;99.90
12720;DHT22;6424;48.520;11.228;2023-04-24T08:43:33;10.90;99.90
12720;DHT22;6424;48.520;11.228;2023-04-24T08:46:17;11.00;99.90
12720;DHT22;6424;48.520;11.228;2023-04-24T08:48:58;11.10;99.90
12720;DHT22;6424;48.520;11.228;2023-04-24T08:51:40;11.30;99.90
12720;DHT22;6424;48.520;11.228;2023-04-24T08:54:21;11.50;99.90
12720;DHT22;6424;48.520;11.228;2023-04-24T08:57:02;11.70;99.90
12720;DHT22;6424;48.520;11.228;2023-04-24T08:59:44;11.70;99.90
12720;DHT22;6424;48.520;11.228;2023-04-24T09:02:26;11.80;99.90
12720;DHT22;6424;48.520;11.228;2023-04-24T09:05:07;11.80;99.90
12720;DHT22;6424;48.520;11.228;2023-04-24T09:07:56;11.80;99.90
12720;DHT22;6424;48.520;11.228;2023-04-24T09:10:37;11.80;99.90
12720;DHT22;6424;48.520;11.228;2023-04-24T09:13:03;11.90;99.90
12720;DHT22;6424;48.520;11.228;2023-04-24T09:15:43;12.10;99.90
12720;DHT22;6424;48.520;11.228;2023-04-24T09:18:09;12.20;99.90
12720;DHT22;6424;48.520;11.228;2023-04-24T09:23:43;12.10;99.90
12720;DHT22;6424;48.520;11.228;2023-04-24T09:26:24;12.20;99.90
12720;DHT22;6424;48.520;11.228;2023-04-24T09:29:05;12.20;99.90
12720;DHT22;6424;48.520;11.228;2023-04-24T09:31:46;12.20;99.90
12720;DHT22;6424;48.520;11.228;2023-04-24T09:34:27;12.20;99.90
12720;DHT22;6424;48.520;11.228;2023-04-24T09:37:08;12.30;99.90
12720;DHT22;6424;48.520;11.228;2023-04-24T09:40:08;12.30;99.90
12720;DHT22;6424;48.520;11.228;2023-04-24T09:42:56;12.50;99.90
12720;DHT22;6424;48.520;11.228;2023-04-24T09:45:41;12.60;99.90
12720;DHT22;6424;48.520;11.228;2023-04-24T09:51:12;12.50;99.90
12720;DHT22;6424;48.520;11.228;2023-04-24T09:53:55;12.50;99.90
12720;DHT22;6424;48.520;11.228;2023-04-24T09:56:36;12.50;99.90
12720;DHT22;6424;48.520;11.228;2023-04-24T09:59:22;12.50;99.90
12720;DHT22;6424;48.520;11.228;2023-04-24T10:02:17;12.50;99.90
12720;DHT22;6424;48.520;11.228;2023-04-24T10:04:58;12.70;99.90
12720;DHT22;6424;48.520;11.228;2023-04-24T10:07:40;12.80;99.90
12720;DHT22;6424;48.520;11.228;2023-04-24T10:10:20;13.10;99.90
12720;DHT22;6424;48.520;11.228;2023-04-24T10:13:02;13.30;99.90
12720;DHT22;6424;48.520;11.228;2023-04-24T10:15:44;13.40;99.90
12720;DHT22;6424;48.520;11.228;2023-04-24T10:18:27;13.30;99.90
12720;DHT22;6424;48.520;11.228;2023-04-24T10:21:08;13.10;99.90
12720;DHT22;6424;48.520;11.228;2023-04-24T10:23:49;12.80;99.90
12720;DHT22;6424;48.520;11.228;2023-04-24T10:26:31;12.50;99.90
12720;DHT22;6424;48.520;11.228;2023-04-24T10:29:13;12.00;99.90
12720;DHT22;6424;48.520;11.228;2023-04-24T10:31:55;11.30;99.90
12720;DHT22;6424;48.520;11.228;2023-04-24T10:34:36;10.80;99.90
12720;DHT22;6424;48.520;11.228;2023-04-24T10:37:17;10.50;99.90
12720;DHT22;6424;48.520;11.228;2023-04-24T10:39:58;10.40;99.90
12720;DHT22;6424;48.520;11.228;2023-04-24T10:42:42;10.40;99.90
12720;DHT22;6424;48.520;11.228;2023-04-24T10:45:27;10.50;99.90
12720;DHT22;6424;48.520;11.228;2023-04-24T10:48:08;10.60;99.90
12720;DHT22;6424;48.520;11.228;2023-04-24T10:50:54;10.70;99.90
12720;DHT22;6424;48.520;11.228;2023-04-24T10:53:34;10.80;99.90
12720;DHT22;6424;48.520;11.228;2023-04-24T10:56:16;10.90;99.90
12720;DHT22;6424;48.520;11.228;2023-04-24T10:58:58;10.90;99.90
12720;DHT22;6424;48.520;11.228;2023-04-24T11:01:38;11.20;99.90
12720;DHT22;6424;48.520;11.228;2023-04-24T11:04:29;11.50;99.90
12720;DHT22;6424;48.520;11.228;2023-04-24T11:07:12;12.10;99.90
12720;DHT22;6424;48.520;11.228;2023-04-24T11:09:58;12.60;99.90
12720;DHT22;6424;48.520;11.228;2023-04-24T11:12:41;12.90;99.90
12720;DHT22;6424;48.520;11.228;2023-04-24T11:15:22;13.20;99.90
12720;DHT22;6424;48.520;11.228;2023-04-24T11:18:03;13.40;99.90
12720;DHT22;6424;48.520;11.228;2023-04-24T11:20:44;13.50;99.90
12720;DHT22;6424;48.520;11.228;2023-04-24T11:23:25;13.40;99.90
12720;DHT22;6424;48.520;11.228;2023-04-24T11:26:17;13.00;99.90
12720;DHT22;6424;48.520;11.228;2023-04-24T11:29:08;12.70;99.90
12720;DHT22;6424;48.520;11.228;2023-04-24T11:31:49;12.30;99.90
12720;DHT22;6424;48.520;11.228;2023-04-24T11:34:32;12.20;99.90
12720;DHT22;6424;48.520;11.228;2023-04-24T11:37:13;12.20;99.90
12720;DHT22;6424;48.520;11.228;2023-04-24T11:39:56;12.30;99.90
12720;DHT22;6424;48.520;11.228;2023-04-24T11:42:44;12.60;99.90
12720;DHT22;6424;48.520;11.228;2023-04-24T11:45:27;12.90;99.90
12720;DHT22;6424;48.520;11.228;2023-04-24T11:47:53;13.20;99.90
12720;DHT22;6424;48.520;11.228;2023-04-24T11:50:22;13.40;99.90
12720;DHT22;6424;48.520;11.228;2023-04-24T11:52:49;13.50;99.90
12720;DHT22;6424;48.520;11.228;2023-04-24T11:55:30;13.60;99.90
12720;DHT22;6424;48.520;11.228;2023-04-24T11:58:11;13.60;99.90
12720;DHT22;6424;48.520;11.228;2023-04-24T12:00:56;13.60;99.90
12720;DHT22;6424;48.520;11.228;2023-04-24T12:03:38;13.70;99.90
12720;DHT22;6424;48.520;11.228;2023-04-24T12:06:18;13.90;99.90
12720;DHT22;6424;48.520;11.228;2023-04-24T12:08:59;14.20;99.90
12720;DHT22;6424;48.520;11.228;2023-04-24T12:11:53;14.50;99.90
12720;DHT22;6424;48.520;11.228;2023-04-24T12:14:48;14.50;99.90
12720;DHT22;6424;48.520;11.228;2023-04-24T12:17:32;14.30;99.90
12720;DHT22;6424;48.520;11.228;2023-04-24T12:20:14;13.90;99.90
12720;DHT22;6424;48.520;11.228;2023-04-24T12:22:56;13.50;99.90
12720;DHT22;6424;48.520;11.228;2023-04-24T12:25:38;13.20;99.90
12720;DHT22;6424;48.520;11.228;2023-04-24T12:28:20;13.00;99.90
12720;DHT22;6424;48.520;11.228;2023-04-24T12:31:01;12.80;99.90
12720;DHT22;6424;48.520;11.228;2023-04-24T12:33:42;12.80;99.90
12720;DHT22;6424;48.520;11.228;2023-04-24T12:36:23;12.70;99.90
12720;DHT22;6424;48.520;11.228;2023-04-24T12:39:17;12.80;99.90
12720;DHT22;6424;48.520;11.228;2023-04-24T12:41:58;13.00;99.90
12720;DHT22;6424;48.520;11.228;2023-04-24T12:44:42;13.10;99.90
12720;DHT22;6424;48.520;11.228;2023-04-24T12:47:23;13.30;99.90
12720;DHT22;6424;48.520;11.228;2023-04-24T12:50:04;13.30;99.90
12720;DHT22;6424;48.520;11.228;2023-04-24T12:52:30;13.40;99.90
12720;DHT22;6424;48.520;11.228;2023-04-24T12:55:11;13.50;99.90
12720;DHT22;6424;48.520;11.228;2023-04-24T12:57:52;13.50;99.90
12720;DHT22;6424;48.520;11.228;2023-04-24T13:00:35;13.50;99.90
12720;DHT22;6424;48.520;11.228;2023-04-24T13:03:17;13.70;99.90
12720;DHT22;6424;48.520;11.228;2023-04-24T13:05:58;13.70;99.90
12720;DHT22;6424;48.520;11.228;2023-04-24T13:08:39;13.80;99.90
12720;DHT22;6424;48.520;11.228;2023-04-24T13:11:05;13.80;99.90
12720;DHT22;6424;48.520;11.228;2023-04-24T13:13:45;13.50;99.90
12720;DHT22;6424;48.520;11.228;2023-04-24T13:16:26;13.20;99.90
12720;DHT22;6424;48.520;11.228;2023-04-24T13:19:07;13.10;99.90
12720;DHT22;6424;48.520;11.228;2023-04-24T13:21:48;12.90;99.90
12720;DHT22;6424;48.520;11.228;2023-04-24T13:24:29;12.90;99.90
12720;DHT22;6424;48.520;11.228;2023-04-24T13:27:09;13.00;99.80
12720;DHT22;6424;48.520;11.228;2023-04-24T13:29:50;13.00;99.20
12720;DHT22;6424;48.520;11.228;2023-04-24T13:32:32;13.00;97.80
12720;DHT22;6424;48.520;11.228;2023-04-24T13:35:13;13.00;98.50
12720;DHT22;6424;48.520;11.228;2023-04-24T13:37:54;13.00;98.10
12720;DHT22;6424;48.520;11.228;2023-04-24T13:40:35;13.00;97.90
12720;DHT22;6424;48.520;11.228;2023-04-24T13:43:16;13.00;98.70
12720;DHT22;6424;48.520;11.228;2023-04-24T13:45:57;13.00;97.80
12720;DHT22;6424;48.520;11.228;2023-04-24T13:48:39;13.00;98.30
12720;DHT22;6424;48.520;11.228;2023-04-24T13:51:05;13.10;98.60
12720;DHT22;6424;48.520;11.228;2023-04-24T13:53:46;13.30;98.50
12720;DHT22;6424;48.520;11.228;2023-04-24T13:56:27;13.40;97.70
12720;DHT22;6424;48.520;11.228;2023-04-24T13:58:52;13.40;97.30
12720;DHT22;6424;48.520;11.228;2023-04-24T14:01:34;13.30;96.90
12720;DHT22;6424;48.520;11.228;2023-04-24T14:04:16;13.20;98.30
12720;DHT22;6424;48.520;11.228;2023-04-24T14:06:57;13.10;98.60
12720;DHT22;6424;48.520;11.228;2023-04-24T14:09:38;12.90;99.10
12720;DHT22;6424;48.520;11.228;2023-04-24T14:12:19;12.80;98.40
12720;DHT22;6424;48.520;11.228;2023-04-24T14:15:00;12.70;99.30
12720;DHT22;6424;48.520;11.228;2023-04-24T14:17:41;12.70;99.90
12720;DHT22;6424;48.520;11.228;2023-04-24T14:20:23;12.70;99.90
12720;DHT22;6424;48.520;11.228;2023-04-24T14:23:04;12.70;99.00
12720;DHT22;6424;48.520;11.228;2023-04-24T14:25:45;12.70;98.90
12720;DHT22;6424;48.520;11.228;2023-04-24T14:28:26;12.80;99.90
12720;DHT22;6424;48.520;11.228;2023-04-24T14:31:07;12.90;98.90
12720;DHT22;6424;48.520;11.228;2023-04-24T14:33:48;13.10;99.90
12720;DHT22;6424;48.520;11.228;2023-04-24T14:36:29;13.30;99.60
12720;DHT22;6424;48.520;11.228;2023-04-24T14:39:11;13.50;97.60
12720;DHT22;6424;48.520;11.228;2023-04-24T14:41:37;13.50;97.30
12720;DHT22;6424;48.520;11.228;2023-04-24T14:44:19;13.60;96.20
12720;DHT22;6424;48.520;11.228;2023-04-24T14:47:00;13.60;98.70
12720;DHT22;6424;48.520;11.228;2023-04-24T14:49:41;13.70;97.00
12720;DHT22;6424;48.520;11.228;2023-04-24T14:52:09;13.60;96.80
12720;DHT22;6424;48.520;11.228;2023-04-24T14:54:50;13.50;95.80
12720;DHT22;6424;48.520;11.228;2023-04-24T14:57:31;13.40;96.00
12720;DHT22;6424;48.520;11.228;2023-04-24T15:00:12;13.30;93.90
12720;DHT22;6424;48.520;11.228;2023-04-24T15:02:53;13.10;95.00
12720;DHT22;6424;48.520;11.228;2023-04-24T15:05:35;13.20;94.00
12720;DHT22;6424;48.520;11.228;2023-04-24T15:08:01;13.30;94.60
12720;DHT22;6424;48.520;11.228;2023-04-24T15:10:43;13.30;95.50
12720;DHT22;6424;48.520;11.228;2023-04-24T15:13:23;13.20;96.40
12720;DHT22;6424;48.520;11.228;2023-04-24T15:16:05;13.00;97.70
12720;DHT22;6424;48.520;11.228;2023-04-24T15:18:46;12.80;97.70
12720;DHT22;6424;48.520;11.228;2023-04-24T15:21:27;12.80;98.70
12720;DHT22;6424;48.520;11.228;2023-04-24T15:24:08;12.80;99.50
12720;DHT22;6424;48.520;11.228;2023-04-24T15:26:49;12.80;99.10
12720;DHT22;6424;48.520;11.228;2023-04-24T15:29:29;12.70;99.80
12720;DHT22;6424;48.520;11.228;2023-04-24T15:32:10;12.70;99.90
12720;DHT22;6424;48.520;11.228;2023-04-24T15:34:51;12.60;99.30
12720;DHT22;6424;48.520;11.228;2023-04-24T15:37:32;12.50;99.90
12720;DHT22;6424;48.520;11.228;2023-04-24T15:40:14;12.40;99.70
12720;DHT22;6424;48.520;11.228;2023-04-24T15:42:56;12.30;99.90
12720;DHT22;6424;48.520;11.228;2023-04-24T15:45:37;12.30;99.90
12720;DHT22;6424;48.520;11.228;2023-04-24T15:48:19;12.30;99.90
12720;DHT22;6424;48.520;11.228;2023-04-24T15:51:00;12.30;99.90
12720;DHT22;6424;48.520;11.228;2023-04-24T15:53:41;12.30;99.90
12720;DHT22;6424;48.520;11.228;2023-04-24T15:56:21;12.20;99.90
12720;DHT22;6424;48.520;11.228;2023-04-24T15:59:03;12.20;99.90
12720;DHT22;6424;48.520;11.228;2023-04-24T16:01:44;12.20;99.90
12720;DHT22;6424;48.520;11.228;2023-04-24T16:04:25;12.30;99.90
12720;DHT22;6424;48.520;11.228;2023-04-24T16:07:06;12.30;99.90
12720;DHT22;6424;48.520;11.228;2023-04-24T16:09:47;12.30;99.90
12720;DHT22;6424;48.520;11.228;2023-04-24T16:12:28;12.20;99.90
12720;DHT22;6424;48.520;11.228;2023-04-24T16:15:09;12.00;99.90
12720;DHT22;6424;48.520;11.228;2023-04-24T16:17:50;11.90;99.90
12720;DHT22;6424;48.520;11.228;2023-04-24T16:20:31;11.90;99.90
12720;DHT22;6424;48.520;11.228;2023-04-24T16:23:12;11.80;99.90
12720;DHT22;6424;48.520;11.228;2023-04-24T16:25:39;11.70;99.90
12720;DHT22;6424;48.520;11.228;2023-04-24T16:28:20;11.60;99.90
12720;DHT22;6424;48.520;11.228;2023-04-24T16:31:02;11.60;99.90
12720;DHT22;6424;48.520;11.228;2023-04-24T16:33:42;11.50;99.90
12720;DHT22;6424;48.520;11.228;2023-04-24T16:36:23;11.50;99.90
12720;DHT22;6424;48.520;11.228;2023-04-24T16:39:04;11.50;99.90
12720;DHT22;6424;48.520;11.228;2023-04-24T16:41:45;11.50;99.90
12720;DHT22;6424;48.520;11.228;2023-04-24T16:44:26;11.50;99.90
12720;DHT22;6424;48.520;11.228;2023-04-24T16:47:07;11.50;99.90
12720;DHT22;6424;48.520;11.228;2023-04-24T16:49:49;11.40;99.90
12720;DHT22;6424;48.520;11.228;2023-04-24T16:52:29;11.30;99.90
12720;DHT22;6424;48.520;11.228;2023-04-24T16:55:10;11.30;99.90
12720;DHT22;6424;48.520;11.228;2023-04-24T16:57:51;11.30;99.90
12720;DHT22;6424;48.520;11.228;2023-04-24T17:00:32;11.30;99.90
12720;DHT22;6424;48.520;11.228;2023-04-24T17:03:13;11.20;99.90